Disclaimer

Please do not use the information listed here in-flight or in-navigation, as they are not provided to us by the airports but are provided by volunteers, so they might be outdated.

Search


Regions


Airport information page

Radio informations:
Melbourne Center - 120.7 MHz
Common traffic adv. frequency (CTAF) - 126.7 MHz

Airport informations:
Latitude: 29° 02' 24.00" S
Longitude: 134° 43' 15.00" E
Elevation: 740 feet - 226 meters
Operating hours: N/A
Operating agency: Civil government, landing fees and diplomatic clearance may be required
Timezone: UTC+9:30(+10:30DT)
Fuel: Jet A1, without icing nhibitor.

Runway information:
04/22 - 4685 x 98 feet< - >1428 x 30 meters
14/32 - 2720 x 98 feet< - >829 x 30 meters

Recent METARs:
YCBP 181600Z AUTO 19019KT 9999 // NCD 28/08 Q1005
YCBP 181600Z AUTO 19019KT 9999 // NCD 28/08 Q1005
YCBP 181700Z AUTO 21016KT 9999 // NCD 27/07 Q1005

Airport on the map: